createdAt,value
2019-06-20T00:00:59.948Z,3.83
2019-06-20T00:03:28.617Z,3.87
2019-06-20T00:05:57.152Z,4.03
2019-06-20T00:08:25.771Z,3.80
2019-06-20T00:10:54.334Z,4.20
2019-06-20T00:13:22.965Z,3.40
2019-06-20T00:15:51.528Z,4.60
2019-06-20T00:18:20.146Z,4.27
2019-06-20T00:20:48.723Z,5.00
2019-06-20T00:23:17.325Z,4.73
2019-06-20T00:25:45.884Z,3.87
2019-06-20T00:28:14.554Z,4.33
2019-06-20T00:30:43.102Z,4.20
2019-06-20T00:33:11.767Z,4.33
2019-06-20T00:35:40.328Z,4.70
2019-06-20T00:38:08.956Z,4.90
2019-06-20T00:40:37.527Z,4.23
2019-06-20T00:43:17.101Z,4.27
2019-06-20T00:45:36.429Z,4.30
2019-06-20T00:48:05.234Z,4.23
2019-06-20T00:50:34.075Z,3.97
2019-06-20T00:53:02.700Z,4.13
2019-06-20T00:55:31.354Z,4.57
2019-06-20T00:58:00.040Z,4.53
2019-06-20T01:00:28.707Z,4.30
2019-06-20T01:02:57.344Z,4.60
2019-06-20T01:05:25.972Z,3.43
2019-06-20T01:07:54.575Z,3.80
2019-06-20T01:10:23.228Z,3.90
2019-06-20T01:12:51.833Z,3.90
2019-06-20T01:15:20.479Z,3.60
2019-06-20T01:17:49.127Z,4.00
2019-06-20T01:20:18.241Z,3.27
2019-06-20T01:22:46.888Z,3.33
2019-06-20T01:25:15.537Z,3.10
2019-06-20T01:27:44.170Z,3.30
2019-06-20T01:30:13.327Z,3.73
2019-06-20T01:32:41.977Z,3.20
2019-06-20T01:35:11.179Z,3.20
2019-06-20T01:37:39.849Z,3.30
2019-06-20T01:40:08.431Z,3.50
2019-06-20T01:42:37.058Z,3.60
2019-06-20T01:45:07.749Z,3.50
2019-06-20T01:47:36.418Z,2.93
2019-06-20T01:50:06.725Z,3.60
2019-06-20T01:52:35.352Z,3.33
2019-06-20T01:55:04.717Z,2.97
2019-06-20T01:57:33.327Z,3.20
2019-06-20T02:00:01.971Z,2.93
2019-06-20T02:02:30.771Z,3.40
2019-06-20T02:04:59.424Z,3.30
2019-06-20T02:07:28.409Z,3.10
2019-06-20T02:09:57.095Z,3.13
2019-06-20T02:12:25.742Z,3.00
2019-06-20T02:14:54.320Z,2.90
2019-06-20T02:17:22.903Z,3.17
2019-06-20T02:19:51.486Z,2.97
2019-06-20T02:22:20.070Z,3.13
2019-06-20T02:24:48.746Z,3.20
2019-06-20T02:27:17.338Z,3.00
2019-06-20T02:29:46.005Z,3.30
2019-06-20T02:32:14.567Z,3.30
2019-06-20T02:34:43.205Z,3.00
2019-06-20T02:37:11.759Z,3.17
2019-06-20T02:39:40.363Z,3.50
2019-06-20T02:42:10.574Z,3.30
2019-06-20T02:44:39.189Z,3.23
2019-06-20T02:47:07.748Z,3.27
2019-06-20T02:49:36.360Z,3.23
2019-06-20T02:52:04.923Z,3.77
2019-06-20T02:54:33.522Z,4.03
2019-06-20T02:57:02.115Z,3.30
2019-06-20T02:59:30.826Z,4.17
2019-06-20T03:01:59.389Z,3.20
2019-06-20T03:04:28.027Z,3.73
2019-06-20T03:06:56.675Z,3.73
2019-06-20T03:09:25.263Z,4.10
2019-06-20T03:11:53.833Z,3.80
2019-06-20T03:14:22.522Z,3.70
2019-06-20T03:16:51.145Z,4.37
2019-06-20T03:19:19.867Z,4.20
2019-06-20T03:21:48.432Z,4.43
2019-06-20T03:24:17.091Z,4.00
2019-06-20T03:26:45.671Z,3.80
2019-06-20T03:29:14.293Z,3.97
2019-06-20T03:31:42.957Z,4.00
2019-06-20T03:34:11.771Z,3.93
2019-06-20T03:36:40.335Z,3.90
2019-06-20T03:39:09.044Z,3.70
2019-06-20T03:41:37.601Z,3.93
2019-06-20T03:44:06.265Z,3.53
2019-06-20T03:46:34.822Z,4.40
2019-06-20T03:49:03.503Z,3.90
2019-06-20T03:51:32.156Z,4.00
2019-06-20T03:54:00.839Z,4.13
2019-06-20T03:56:29.463Z,4.30
2019-06-20T03:58:58.100Z,4.00
2019-06-20T04:01:26.635Z,3.97
2019-06-20T04:03:55.279Z,4.37
2019-06-20T04:06:23.835Z,4.60
2019-06-20T04:08:52.475Z,3.93
2019-06-20T04:11:21.036Z,4.00
2019-06-20T04:13:49.652Z,3.57
2019-06-20T04:16:19.850Z,4.00
2019-06-20T04:18:48.483Z,3.90
2019-06-20T04:21:20.155Z,3.73
2019-06-20T04:23:49.225Z,4.00
2019-06-20T04:26:17.862Z,3.60
2019-06-20T04:28:46.477Z,3.47
2019-06-20T04:31:15.142Z,3.70
2019-06-20T04:33:43.799Z,4.30
2019-06-20T04:36:12.367Z,3.80
2019-06-20T04:38:40.969Z,3.50
2019-06-20T04:41:09.550Z,4.37
2019-06-20T04:43:38.185Z,3.63
2019-06-20T04:46:08.463Z,3.97
2019-06-20T04:48:37.066Z,4.00
2019-06-20T04:51:05.622Z,3.90
2019-06-20T04:53:34.359Z,4.10
2019-06-20T04:56:05.600Z,3.90
2019-06-20T04:58:33.331Z,3.60
2019-06-20T05:01:01.963Z,4.17
2019-06-20T05:03:30.825Z,4.57
2019-06-20T05:05:59.536Z,4.00
2019-06-20T05:08:28.130Z,4.07
2019-06-20T05:10:56.689Z,4.33
2019-06-20T05:13:25.347Z,4.17
2019-06-20T05:15:53.909Z,3.93
2019-06-20T05:18:22.555Z,4.20
2019-06-20T05:20:51.140Z,3.90
2019-06-20T05:23:19.767Z,3.40
2019-06-20T05:25:48.347Z,3.60
2019-06-20T05:28:16.958Z,4.23
2019-06-20T05:30:46.973Z,3.93
2019-06-20T05:33:15.578Z,3.53
2019-06-20T05:35:44.220Z,3.57
2019-06-20T05:38:12.825Z,3.70
2019-06-20T05:40:41.516Z,4.40
2019-06-20T05:43:10.321Z,4.00
2019-06-20T05:45:38.951Z,4.00
2019-06-20T05:48:07.738Z,4.00
2019-06-20T05:50:36.316Z,4.30
2019-06-20T05:53:05.032Z,4.53
2019-06-20T05:55:34.032Z,4.03
2019-06-20T05:58:02.742Z,4.17
2019-06-20T06:00:31.470Z,4.57
2019-06-20T06:03:00.060Z,3.80
2019-06-20T06:05:28.677Z,4.60
2019-06-20T06:07:58.422Z,4.07
2019-06-20T06:10:27.278Z,4.20
2019-06-20T06:12:55.926Z,4.40
2019-06-20T06:15:24.903Z,4.30
2019-06-20T06:17:53.565Z,4.60
2019-06-20T06:20:22.207Z,5.40
2019-06-20T06:22:50.839Z,6.03
2019-06-20T06:25:19.402Z,6.20
2019-06-20T06:27:48.008Z,6.30
2019-06-20T06:30:16.814Z,5.80
2019-06-20T06:32:45.719Z,6.20
2019-06-20T06:35:15.041Z,6.53
2019-06-20T06:37:43.831Z,6.23
2019-06-20T06:40:14.000Z,6.80
2019-06-20T06:42:42.673Z,5.47
2019-06-20T06:45:12.070Z,5.40
2019-06-20T06:47:40.781Z,6.00
2019-06-20T06:50:10.708Z,5.40
2019-06-20T06:52:39.562Z,5.13
2019-06-20T06:55:08.700Z,5.30
2019-06-20T06:57:37.416Z,6.00
2019-06-20T07:00:10.904Z,5.60
2019-06-20T07:02:39.506Z,7.00
2019-06-20T07:05:08.718Z,5.83
2019-06-20T07:07:37.473Z,5.23
2019-06-20T07:10:07.062Z,6.00
2019-06-20T07:12:35.842Z,6.03
2019-06-20T07:15:06.713Z,5.00
2019-06-20T07:17:35.397Z,5.00
2019-06-20T07:20:06.317Z,5.10
2019-06-20T07:22:35.453Z,5.30
2019-06-20T07:25:05.751Z,4.93
2019-06-20T07:27:34.363Z,5.30
2019-06-20T07:30:03.082Z,5.73
2019-06-20T07:32:31.700Z,5.00
2019-06-20T07:35:00.328Z,5.43
2019-06-20T07:37:28.965Z,4.70
2019-06-20T07:39:57.517Z,5.40
2019-06-20T07:42:26.174Z,4.80
2019-06-20T07:44:54.732Z,6.33
2019-06-20T07:47:23.365Z,5.30
2019-06-20T07:49:51.911Z,5.10
2019-06-20T07:52:21.386Z,5.60
2019-06-20T07:54:49.979Z,5.47
2019-06-20T07:57:18.579Z,4.63
2019-06-20T07:59:47.205Z,5.87
2019-06-20T08:02:15.912Z,5.07
2019-06-20T08:04:44.802Z,5.53
2019-06-20T08:07:13.595Z,6.10
2019-06-20T08:09:45.057Z,4.83
2019-06-20T08:12:18.397Z,4.73
2019-06-20T08:14:48.020Z,5.97
2019-06-20T08:17:31.560Z,6.23
2019-06-20T08:19:49.672Z,5.17
2019-06-20T08:22:22.423Z,5.30
2019-06-20T08:24:54.880Z,5.03
2019-06-20T08:27:28.242Z,5.60
2019-06-20T08:30:00.926Z,4.70
2019-06-20T08:32:31.395Z,4.43
2019-06-20T08:35:04.512Z,4.73
2019-06-20T08:37:38.554Z,4.67
2019-06-20T08:40:12.526Z,4.20
2019-06-20T08:42:42.173Z,3.83
2019-06-20T08:45:11.417Z,4.00
2019-06-20T08:47:40.550Z,4.67
2019-06-20T08:50:12.235Z,4.40
2019-06-20T08:52:42.572Z,4.70
2019-06-20T08:55:17.834Z,4.50
2019-06-20T08:57:49.984Z,4.03
2019-06-20T09:00:24.364Z,4.50
2019-06-20T09:02:55.028Z,3.90
2019-06-20T09:05:44.190Z,3.43
2019-06-20T09:08:14.643Z,3.70
2019-06-20T09:10:44.223Z,3.80
2019-06-20T09:13:17.394Z,4.37
2019-06-20T09:15:47.488Z,4.10
2019-06-20T09:18:18.574Z,4.10
2019-06-20T09:20:48.007Z,4.20
2019-06-20T09:23:22.269Z,4.83
2019-06-20T09:25:55.989Z,3.60
2019-06-20T09:28:28.294Z,4.10
2019-06-20T09:30:59.257Z,3.50
2019-06-20T09:33:30.272Z,3.83
2019-06-20T09:35:59.593Z,3.60
2019-06-20T09:38:39.309Z,4.07
2019-06-20T09:41:09.534Z,3.90
2019-06-20T09:43:43.312Z,4.00
2019-06-20T09:46:18.451Z,4.63
2019-06-20T09:48:51.034Z,3.77
2019-06-20T09:51:23.488Z,4.27
2019-06-20T09:53:56.366Z,4.57
2019-06-20T09:56:31.402Z,3.80
2019-06-20T09:59:04.496Z,4.70
2019-06-20T10:01:47.607Z,4.30
2019-06-20T10:04:21.529Z,4.10
2019-06-20T10:06:50.215Z,3.90
2019-06-20T10:09:20.912Z,3.53
2019-06-20T10:11:56.109Z,4.00
2019-06-20T10:14:26.454Z,3.57
2019-06-20T10:16:57.128Z,4.07
2019-06-20T10:19:29.781Z,4.60
2019-06-20T10:22:05.511Z,4.50
2019-06-20T10:24:38.154Z,4.47
2019-06-20T10:27:12.059Z,4.03
2019-06-20T10:29:46.212Z,4.50
2019-06-20T10:32:27.680Z,3.93
2019-06-20T10:35:06.623Z,4.27
2019-06-20T10:37:40.648Z,4.20
2019-06-20T10:40:14.953Z,3.37
2019-06-20T10:42:50.265Z,3.63
2019-06-20T10:45:25.307Z,4.03
2019-06-20T10:47:59.503Z,4.10
2019-06-20T10:50:30.347Z,4.00
2019-06-20T10:53:02.244Z,3.60
2019-06-20T10:55:35.397Z,3.50
2019-06-20T10:58:04.466Z,3.70
2019-06-20T11:00:39.834Z,3.23
2019-06-20T11:03:15.012Z,3.40
2019-06-20T11:05:49.881Z,3.53
2019-06-20T11:08:23.753Z,4.03
2019-06-20T11:11:15.780Z,3.00
2019-06-20T11:14:04.126Z,2.90
2019-06-20T11:16:42.164Z,3.13
2019-06-20T11:19:20.154Z,3.10
2019-06-20T11:21:55.700Z,3.43
2019-06-20T11:24:29.389Z,3.60
2019-06-20T11:27:09.849Z,3.70
2019-06-20T11:29:41.639Z,3.33
2019-06-20T11:32:13.574Z,3.50
2019-06-20T11:34:45.095Z,3.40
2019-06-20T11:37:15.342Z,3.50
2019-06-20T11:39:51.369Z,3.70
2019-06-20T11:42:25.097Z,3.40
2019-06-20T11:44:54.505Z,3.80
2019-06-20T11:47:25.704Z,3.40
2019-06-20T11:49:57.913Z,2.90
2019-06-20T11:52:35.278Z,2.80
2019-06-20T11:55:09.127Z,3.23
2019-06-20T11:57:41.425Z,2.63
2019-06-20T12:00:12.852Z,2.90
2019-06-20T12:02:52.077Z,3.27
2019-06-20T12:05:24.970Z,2.53
2019-06-20T12:07:59.070Z,2.97
2019-06-20T12:10:31.206Z,2.23
2019-06-20T12:13:03.618Z,2.33
2019-06-20T12:15:38.111Z,2.10
2019-06-20T12:18:13.678Z,2.40
2019-06-20T12:20:46.803Z,2.20
2019-06-20T12:23:16.044Z,2.70
2019-06-20T12:25:57.525Z,2.60
2019-06-20T12:28:30.503Z,3.20
2019-06-20T12:31:01.197Z,3.53
2019-06-20T12:33:34.192Z,2.67
2019-06-20T12:36:05.613Z,2.90
2019-06-20T12:38:38.075Z,3.27
2019-06-20T12:41:16.082Z,2.93
2019-06-20T12:43:46.356Z,2.70
2019-06-20T12:46:17.545Z,2.80
2019-06-20T12:48:50.392Z,2.57
2019-06-20T12:51:19.624Z,3.47
2019-06-20T12:53:50.966Z,2.93
2019-06-20T12:56:23.956Z,2.80
2019-06-20T12:58:53.450Z,2.50
2019-06-20T13:01:36.974Z,3.67
2019-06-20T13:04:09.981Z,3.00
2019-06-20T13:06:40.490Z,3.20
2019-06-20T13:09:14.136Z,3.13
2019-06-20T13:11:49.285Z,2.90
2019-06-20T13:14:22.845Z,3.27
2019-06-20T13:17:01.052Z,3.00
2019-06-20T13:19:46.527Z,3.53
2019-06-20T13:22:23.882Z,3.10
2019-06-20T13:24:56.781Z,3.07
2019-06-20T13:27:27.572Z,2.70
2019-06-20T13:30:17.045Z,3.93
2019-06-20T13:32:55.188Z,3.40
2019-06-20T13:35:30.024Z,3.50
2019-06-20T13:38:04.676Z,3.60
2019-06-20T13:40:41.464Z,3.80
2019-06-20T13:43:16.420Z,3.90
2019-06-20T13:45:50.311Z,4.50
2019-06-20T13:48:47.440Z,4.03
2019-06-20T13:51:18.988Z,4.37
2019-06-20T13:53:50.890Z,5.93
2019-06-20T13:56:25.185Z,5.87
2019-06-20T13:58:54.758Z,5.60
2019-06-20T14:01:27.089Z,5.53
2019-06-20T14:04:01.482Z,5.77
2019-06-20T14:06:35.950Z,6.37
2019-06-20T14:09:08.093Z,6.43
2019-06-20T14:11:43.440Z,6.13
2019-06-20T14:14:23.574Z,6.53
2019-06-20T14:16:54.718Z,6.80
2019-06-20T14:19:34.462Z,6.20
2019-06-20T14:22:08.667Z,6.40
2019-06-20T14:24:53.709Z,6.83
2019-06-20T14:27:27.579Z,6.20
2019-06-20T14:30:03.472Z,7.20
2019-06-20T14:32:36.781Z,6.07
2019-06-20T14:35:13.414Z,6.20
2019-06-20T14:37:55.361Z,6.00
2019-06-20T14:40:37.347Z,6.50
2019-06-20T14:43:08.740Z,6.13
2019-06-20T14:45:43.858Z,6.70
2019-06-20T14:48:18.300Z,6.17
2019-06-20T14:50:51.377Z,7.60
2019-06-20T14:53:25.085Z,6.80
2019-06-20T14:56:01.180Z,7.50
2019-06-20T14:58:36.692Z,7.77
2019-06-20T15:01:18.482Z,6.40
2019-06-20T15:03:51.730Z,5.43
2019-06-20T15:06:26.422Z,5.80
2019-06-20T15:09:08.652Z,5.00
2019-06-20T15:11:41.614Z,5.10
2019-06-20T15:14:23.265Z,5.67
2019-06-20T15:16:56.554Z,4.90
2019-06-20T15:19:36.798Z,4.50
2019-06-20T15:22:09.293Z,4.63
2019-06-20T15:24:44.798Z,4.50
2019-06-20T15:27:15.997Z,4.70
2019-06-20T15:29:50.538Z,4.47
2019-06-20T15:32:24.303Z,4.30
2019-06-20T15:35:06.653Z,3.90
2019-06-20T15:37:48.357Z,3.40
2019-06-20T15:40:28.299Z,3.50
2019-06-20T15:42:59.252Z,3.90
2019-06-20T15:45:50.212Z,3.70
2019-06-20T15:48:25.905Z,4.03
2019-06-20T15:51:04.034Z,4.27
2019-06-20T15:53:37.066Z,4.20
2019-06-20T15:56:14.111Z,3.40
2019-06-20T15:59:02.166Z,3.27
2019-06-20T16:01:42.304Z,3.90
2019-06-20T16:04:19.622Z,3.80
2019-06-20T16:06:55.831Z,3.93
2019-06-20T16:09:36.029Z,4.10
2019-06-20T16:12:19.694Z,3.57
2019-06-20T16:14:53.029Z,3.97
2019-06-20T16:17:26.992Z,3.90
2019-06-20T16:20:03.878Z,3.87
2019-06-20T16:22:41.055Z,3.87
2019-06-20T16:25:13.597Z,3.97
2019-06-20T16:27:50.597Z,3.77
2019-06-20T16:30:33.857Z,4.10
2019-06-20T16:33:25.257Z,4.00
2019-06-20T16:36:12.986Z,3.53
2019-06-20T16:38:46.106Z,3.97
2019-06-20T16:41:20.076Z,3.60
2019-06-20T16:46:44.261Z,3.97
2019-06-20T16:49:13.766Z,3.80
2019-06-20T16:51:44.945Z,4.00
2019-06-20T16:54:16.802Z,3.80
2019-06-20T16:56:47.400Z,4.30
2019-06-20T16:59:19.874Z,4.00
2019-06-20T17:01:52.858Z,3.97
2019-06-20T17:04:22.705Z,3.40
2019-06-20T17:07:00.175Z,4.20
2019-06-20T17:09:30.884Z,4.00
2019-06-20T17:12:14.646Z,4.10
2019-06-20T17:14:49.855Z,3.40
2019-06-20T17:17:32.961Z,3.83
2019-06-20T17:20:10.348Z,3.60
2019-06-20T17:22:48.754Z,3.43
2019-06-20T17:25:20.118Z,4.30
2019-06-20T17:27:52.673Z,4.10
2019-06-20T17:30:28.287Z,4.47
2019-06-20T17:33:03.241Z,4.57
2019-06-20T17:35:37.430Z,3.73
2019-06-20T17:38:13.402Z,4.07
2019-06-20T17:40:54.435Z,3.67
2019-06-20T17:43:23.683Z,3.20
2019-06-20T17:45:55.651Z,3.93
2019-06-20T17:51:21.148Z,3.33
2019-06-20T17:53:53.864Z,4.37
2019-06-20T17:56:27.600Z,3.30
2019-06-20T17:59:00.263Z,3.43
2019-06-20T18:01:36.346Z,4.00
2019-06-20T18:04:15.436Z,3.87
2019-06-20T18:06:45.148Z,4.30
2019-06-20T18:09:23.682Z,3.70
2019-06-20T18:11:56.460Z,3.93
2019-06-20T18:14:29.526Z,3.83
2019-06-20T18:17:07.857Z,3.97
2019-06-20T18:19:48.809Z,4.17
2019-06-20T18:22:27.215Z,3.53
2019-06-20T18:25:03.896Z,3.50
2019-06-20T18:27:38.905Z,3.77
2019-06-20T18:30:13.382Z,4.13
2019-06-20T18:32:47.830Z,4.40
2019-06-20T18:35:24.204Z,3.70
2019-06-20T18:37:57.323Z,3.90
2019-06-20T18:40:36.737Z,4.47
2019-06-20T18:43:09.575Z,3.90
2019-06-20T18:45:43.572Z,4.57
2019-06-20T18:48:22.664Z,3.73
2019-06-20T18:50:56.050Z,3.97
2019-06-20T18:53:28.575Z,4.37
2019-06-20T18:56:04.894Z,4.27
2019-06-20T18:58:40.058Z,4.10
2019-06-20T19:01:11.975Z,4.97
2019-06-20T19:03:54.231Z,4.57
2019-06-20T19:06:35.892Z,4.47
2019-06-20T19:09:11.373Z,5.20
2019-06-20T19:11:42.331Z,5.33
2019-06-20T19:14:16.560Z,5.63
2019-06-20T19:16:55.671Z,5.37
2019-06-20T19:19:37.719Z,4.50
2019-06-20T19:22:13.552Z,4.83
2019-06-20T19:25:04.767Z,5.07
2019-06-20T19:27:46.292Z,5.30
2019-06-20T19:30:37.711Z,5.20
2019-06-20T19:33:22.902Z,5.33
2019-06-20T19:36:02.063Z,5.80
2019-06-20T19:38:52.101Z,5.47
2019-06-20T19:41:24.807Z,5.73
2019-06-20T19:44:12.428Z,5.60
2019-06-20T19:46:43.309Z,5.43
2019-06-20T19:52:11.008Z,5.30
2019-06-20T19:54:42.707Z,5.27
2019-06-20T19:57:18.025Z,5.23
2019-06-20T20:02:48.379Z,5.67
2019-06-20T20:05:24.471Z,6.07
2019-06-20T20:07:56.664Z,5.80
2019-06-20T20:10:36.937Z,5.70
2019-06-20T20:13:20.959Z,5.87
2019-06-20T20:15:59.129Z,5.40
2019-06-20T20:18:31.667Z,5.63
2019-06-20T20:21:04.564Z,6.13
2019-06-20T20:23:38.897Z,5.83
2019-06-20T20:26:29.008Z,6.30
2019-06-20T20:29:06.235Z,6.47
2019-06-20T20:31:37.434Z,6.20
2019-06-20T20:34:07.046Z,6.10
2019-06-20T20:36:39.016Z,5.77
2019-06-20T20:39:12.420Z,6.10
2019-06-20T20:41:44.511Z,5.80
2019-06-20T20:44:13.810Z,5.70
2019-06-20T20:46:47.172Z,6.33
2019-06-20T20:49:18.062Z,5.50
2019-06-20T20:52:04.718Z,6.27
2019-06-20T20:54:41.149Z,6.13
2019-06-20T20:57:12.409Z,5.93
2019-06-20T20:59:44.509Z,6.37
2019-06-20T21:02:16.664Z,6.30
2019-06-20T21:04:45.811Z,6.63
2019-06-20T21:07:17.575Z,6.37
2019-06-20T21:09:49.492Z,6.00
2019-06-20T21:12:23.036Z,6.50
2019-06-20T21:14:53.753Z,6.20
2019-06-20T21:17:27.926Z,7.07
2019-06-20T21:20:05.175Z,6.63
2019-06-20T21:22:37.505Z,7.30
2019-06-20T21:25:08.224Z,6.17
2019-06-20T21:27:38.090Z,6.53
2019-06-20T21:30:09.206Z,7.20
2019-06-20T21:32:43.086Z,7.63
2019-06-20T21:35:13.749Z,6.83
2019-06-20T21:37:42.750Z,7.73
2019-06-20T21:40:12.572Z,7.50
2019-06-20T21:42:41.626Z,6.90
2019-06-20T21:45:11.205Z,7.40
2019-06-20T21:47:40.251Z,7.50
2019-06-20T21:50:09.787Z,7.80
2019-06-20T21:52:38.942Z,8.00
2019-06-20T21:55:08.050Z,7.97
2019-06-20T21:57:36.630Z,7.47
2019-06-20T22:00:11.557Z,7.80
2019-06-20T22:02:40.237Z,7.93
2019-06-20T22:05:10.391Z,7.73
2019-06-20T22:07:39.039Z,8.20
2019-06-20T22:10:08.058Z,9.00
2019-06-20T22:12:36.689Z,9.37
2019-06-20T22:15:08.571Z,8.47
2019-06-20T22:17:37.225Z,9.33
2019-06-20T22:20:07.052Z,9.37
2019-06-20T22:22:35.732Z,10.10
2019-06-20T22:25:09.012Z,9.83
2019-06-20T22:27:37.706Z,9.33
2019-06-20T22:30:09.456Z,8.93
2019-06-20T22:32:38.086Z,9.30
2019-06-20T22:35:07.693Z,9.43
2019-06-20T22:37:36.333Z,9.00
2019-06-20T22:40:08.556Z,9.90
2019-06-20T22:42:37.339Z,11.33
2019-06-20T22:45:10.847Z,9.73
2019-06-20T22:47:39.602Z,10.00
2019-06-20T22:50:09.943Z,9.97
2019-06-20T22:52:38.561Z,10.13
2019-06-20T22:55:07.256Z,10.07
2019-06-20T22:57:35.891Z,10.60
2019-06-20T23:00:08.724Z,10.37
2019-06-20T23:02:38.576Z,10.93
2019-06-20T23:05:07.989Z,10.27
2019-06-20T23:07:36.686Z,10.90
2019-06-20T23:10:10.861Z,10.43
2019-06-20T23:12:39.691Z,10.73
2019-06-20T23:15:09.007Z,10.87
2019-06-20T23:17:37.754Z,11.17
2019-06-20T23:20:11.226Z,10.87
2019-06-20T23:22:39.849Z,11.07
2019-06-20T23:25:09.446Z,12.33
2019-06-20T23:27:38.059Z,10.80
2019-06-20T23:30:08.251Z,12.20
2019-06-20T23:32:36.930Z,11.03
2019-06-20T23:35:09.723Z,12.30
2019-06-20T23:37:38.500Z,11.83
2019-06-20T23:40:08.773Z,12.60
2019-06-20T23:42:37.502Z,12.43
2019-06-20T23:45:06.979Z,11.60
2019-06-20T23:47:35.605Z,11.70
2019-06-20T23:50:05.510Z,12.20
2019-06-20T23:52:38.493Z,12.10
2019-06-20T23:55:07.481Z,11.80
2019-06-20T23:57:36.899Z,11.40
